Time;durP1;ratioP1;P1;durP2;ratioP2;P2;SDS_P1;SDS_P2;PMS_P1;PMS_P2;Temp;Humidity;BMP_temperature;BMP_pressure;BME280_temperature;BME280_humidity;BME280_pressure;Samples;Min_cycle;Max_cycle;Signal;HPM_P1;HPM_P2
2021/11/21 00:00:35;;;;;;;4.57;3.25;;;17.90;80.80;;;;;;5090348;28;20024;-84
2021/11/21 00:03:01;;;;;;;4.65;3.03;;;17.80;80.70;;;;;;5076235;28;20483;-84
2021/11/21 00:05:26;;;;;;;4.93;3.00;;;17.80;80.70;;;;;;5090595;28;20111;-84
2021/11/21 00:07:52;;;;;;;4.40;3.05;;;17.80;80.60;;;;;;5090716;28;20039;-84
2021/11/21 00:10:17;;;;;;;3.63;2.80;;;17.80;80.60;;;;;;5073812;28;20063;-83
2021/11/21 00:12:44;;;;;;;3.70;2.60;;;17.80;80.60;;;;;;5090557;28;20101;-84
2021/11/21 00:15:09;;;;;;;4.88;3.63;;;17.80;80.60;;;;;;5074421;28;20032;-84
2021/11/21 00:17:35;;;;;;;4.13;3.22;;;17.70;80.50;;;;;;5077485;28;20024;-83
2021/11/21 00:20:03;;;;;;;4.47;2.88;;;17.70;80.50;;;;;;5074296;28;20033;-82
2021/11/21 00:22:34;;;;;;;5.22;3.53;;;17.70;80.40;;;;;;5080429;28;20103;-84
2021/11/21 00:25:00;;;;;;;3.90;3.22;;;17.70;80.40;;;;;;5094437;28;20028;-84
2021/11/21 00:27:25;;;;;;;4.43;3.38;;;17.70;80.40;;;;;;5082229;28;20020;-84
2021/11/21 00:29:53;;;;;;;4.03;2.95;;;17.70;80.40;;;;;;5088086;28;20028;-85
2021/11/21 00:32:19;;;;;;;5.10;3.53;;;17.70;80.40;;;;;;5079215;28;20035;-85
2021/11/21 00:34:44;;;;;;;4.05;3.03;;;17.70;80.30;;;;;;5094100;28;20384;-85
2021/11/21 00:37:10;;;;;;;4.72;3.28;;;17.60;80.30;;;;;;5093723;28;20084;-84
2021/11/21 00:39:36;;;;;;;5.07;3.30;;;17.60;80.20;;;;;;5094025;28;20078;-84
2021/11/21 00:42:01;;;;;;;3.88;3.15;;;17.60;80.20;;;;;;5090168;28;20036;-85
2021/11/21 00:44:27;;;;;;;3.55;2.90;;;17.60;80.10;;;;;;5083675;28;20035;-83
2021/11/21 00:46:53;;;;;;;4.75;3.47;;;17.60;80.10;;;;;;5073764;28;20036;-79
2021/11/21 00:49:19;;;;;;;4.53;2.95;;;17.50;80.00;;;;;;5074051;28;20500;-84
2021/11/21 00:51:45;;;;;;;4.15;3.13;;;17.50;80.00;;;;;;5082461;28;20372;-84
2021/11/21 00:54:28;;;;;;;3.95;2.97;;;17.50;80.00;;;;;;5074066;28;20074;-84
2021/11/21 00:56:54;;;;;;;4.88;3.55;;;17.50;80.00;;;;;;5070386;28;20032;-82
2021/11/21 00:59:20;;;;;;;4.18;3.00;;;17.50;79.90;;;;;;5090117;28;20123;-84
2021/11/21 01:01:48;;;;;;;4.43;2.85;;;17.50;80.00;;;;;;5080327;28;20048;-84
2021/11/21 01:04:14;;;;;;;4.22;2.97;;;17.40;80.00;;;;;;5092810;28;20114;-84
2021/11/21 01:06:40;;;;;;;4.40;2.88;;;17.40;79.90;;;;;;5093019;28;20116;-84
2021/11/21 01:09:05;;;;;;;4.05;3.03;;;17.50;80.00;;;;;;5078774;28;20032;-83
2021/11/21 01:11:31;;;;;;;4.68;3.15;;;17.50;79.90;;;;;;5080248;28;20089;-83
2021/11/21 01:13:57;;;;;;;4.03;3.03;;;17.40;79.90;;;;;;5093213;28;20028;-83
2021/11/21 01:16:22;;;;;;;5.10;2.88;;;17.40;79.80;;;;;;5087063;28;20107;-82
2021/11/21 01:18:48;;;;;;;3.67;2.90;;;17.40;79.90;;;;;;5073678;28;20032;-86
2021/11/21 01:21:14;;;;;;;4.43;3.25;;;17.40;79.80;;;;;;5056275;28;20052;-85
2021/11/21 01:23:40;;;;;;;3.58;2.83;;;17.40;79.90;;;;;;5082656;28;20032;-85
2021/11/21 01:26:05;;;;;;;3.83;2.85;;;17.40;79.90;;;;;;5090685;28;20074;-84
2021/11/21 01:28:31;;;;;;;4.93;3.10;;;17.40;79.80;;;;;;5078412;28;20020;-85
2021/11/21 01:30:57;;;;;;;4.85;3.33;;;17.40;79.80;;;;;;5088812;28;20032;-85
2021/11/21 01:33:23;;;;;;;3.50;2.58;;;17.40;79.80;;;;;;5075737;28;20024;-80
2021/11/21 01:35:49;;;;;;;5.15;3.05;;;17.30;79.70;;;;;;5074797;28;20107;-82
2021/11/21 01:38:14;;;;;;;4.75;3.10;;;17.30;79.70;;;;;;5091946;28;20051;-83
2021/11/21 01:40:40;;;;;;;4.43;3.17;;;17.30;79.70;;;;;;5072658;28;20028;-82
2021/11/21 01:43:07;;;;;;;4.93;3.55;;;17.30;79.70;;;;;;5072667;28;20105;-83
2021/11/21 01:45:33;;;;;;;3.38;2.65;;;17.30;79.70;;;;;;5066773;28;20499;-83
2021/11/21 01:48:00;;;;;;;4.05;3.00;;;17.30;79.60;;;;;;5087413;28;20042;-83
2021/11/21 01:50:33;;;;;;;3.65;2.60;;;17.30;79.60;;;;;;5083688;28;20042;-82
2021/11/21 01:52:59;;;;;;;3.75;2.78;;;17.20;79.60;;;;;;5065177;28;20083;-86
2021/11/21 01:55:25;;;;;;;3.10;2.60;;;17.20;79.60;;;;;;5072253;28;20028;-85
2021/11/21 01:57:56;;;;;;;3.95;2.70;;;17.20;79.60;;;;;;5084296;28;20024;-86
2021/11/21 02:00:28;;;;;;;3.53;2.72;;;17.20;79.60;;;;;;5066599;28;20040;-85
2021/11/21 02:02:54;;;;;;;4.22;2.70;;;17.20;79.60;;;;;;5083684;28;20111;-85
2021/11/21 02:05:20;;;;;;;3.63;3.08;;;17.20;79.60;;;;;;5072750;28;20025;-85
2021/11/21 02:07:47;;;;;;;3.97;3.08;;;17.20;79.60;;;;;;5071931;28;20031;-86
2021/11/21 02:10:18;;;;;;;3.13;2.70;;;17.20;79.50;;;;;;5072281;28;20115;-86
2021/11/21 02:12:44;;;;;;;3.17;2.33;;;17.20;79.40;;;;;;5071792;28;20028;-85
2021/11/21 02:15:12;;;;;;;3.38;2.65;;;17.20;79.40;;;;;;5072124;28;20074;-85
2021/11/21 02:17:38;;;;;;;3.33;2.35;;;17.20;79.30;;;;;;5077651;28;20539;-84
2021/11/21 02:20:08;;;;;;;4.00;2.83;;;17.20;79.30;;;;;;5090611;28;20053;-85
2021/11/21 02:22:36;;;;;;;3.60;2.83;;;17.20;79.30;;;;;;5077960;28;20020;-86
2021/11/21 02:25:03;;;;;;;3.55;2.50;;;17.20;79.30;;;;;;5053975;28;20036;-85
2021/11/21 02:27:30;;;;;;;3.65;2.40;;;17.20;79.20;;;;;;5062487;28;20024;-85
2021/11/21 02:29:56;;;;;;;3.33;2.50;;;17.20;79.10;;;;;;5076593;28;20131;-85
2021/11/21 02:32:22;;;;;;;3.35;2.50;;;17.20;79.00;;;;;;5071960;28;20420;-83
2021/11/21 02:34:48;;;;;;;3.63;2.83;;;17.20;79.00;;;;;;5091554;28;20108;-85
2021/11/21 02:37:14;;;;;;;3.00;2.15;;;17.20;78.90;;;;;;5091815;28;20545;-83
2021/11/21 02:39:41;;;;;;;3.85;2.72;;;17.20;78.90;;;;;;5091727;28;20103;-85
2021/11/21 02:42:07;;;;;;;2.95;2.50;;;17.30;79.00;;;;;;5083794;28;20052;-83
2021/11/21 02:44:33;;;;;;;3.35;2.80;;;17.30;78.90;;;;;;5085491;28;20043;-83
2021/11/21 02:46:59;;;;;;;3.42;2.65;;;17.30;78.90;;;;;;5072243;28;20032;-84
2021/11/21 02:49:24;;;;;;;2.88;2.40;;;17.30;78.80;;;;;;5071337;28;20036;-84
2021/11/21 02:51:50;;;;;;;3.25;2.72;;;17.30;78.70;;;;;;5091666;28;20024;-82
2021/11/21 02:54:16;;;;;;;3.40;2.85;;;17.30;78.70;;;;;;5091855;28;20028;-82
2021/11/21 02:56:42;;;;;;;3.83;2.78;;;17.30;78.60;;;;;;5072782;28;20028;-84
2021/11/21 02:59:07;;;;;;;3.55;2.63;;;17.30;78.50;;;;;;5076460;28;20035;-84
2021/11/21 03:01:33;;;;;;;3.95;3.22;;;17.30;78.50;;;;;;5071912;28;20545;-86
2021/11/21 03:03:59;;;;;;;3.47;2.80;;;17.30;78.40;;;;;;5091084;28;20032;-85
2021/11/21 03:06:26;;;;;;;3.60;2.85;;;17.30;78.40;;;;;;5091376;28;20025;-82
2021/11/21 03:08:53;;;;;;;3.63;2.55;;;17.40;78.40;;;;;;5078095;28;20032;-83
2021/11/21 03:11:34;;;;;;;3.53;2.70;;;17.40;78.30;;;;;;5087817;28;20559;-84
2021/11/21 03:14:02;;;;;;;2.60;1.92;;;17.30;78.30;;;;;;5068003;28;20028;-84
2021/11/21 03:16:29;;;;;;;2.72;1.98;;;17.30;78.20;;;;;;5070984;28;20027;-84
2021/11/21 03:18:55;;;;;;;3.20;2.55;;;17.30;78.20;;;;;;5071281;28;20021;-84
2021/11/21 03:21:21;;;;;;;3.13;2.50;;;17.30;78.10;;;;;;5083247;28;20373;-82
2021/11/21 03:23:47;;;;;;;2.53;1.90;;;17.30;78.10;;;;;;5091228;28;20047;-84
2021/11/21 03:26:13;;;;;;;2.88;2.47;;;17.40;78.10;;;;;;5068781;28;20476;-85
2021/11/21 03:28:38;;;;;;;2.95;2.33;;;17.40;78.10;;;;;;5076029;28;20020;-85
2021/11/21 03:31:04;;;;;;;2.65;2.10;;;17.40;78.10;;;;;;5083635;28;20032;-84
2021/11/21 03:33:30;;;;;;;2.05;1.83;;;17.30;78.00;;;;;;5082367;28;20411;-84
2021/11/21 03:35:56;;;;;;;2.50;2.15;;;17.40;78.10;;;;;;5091289;28;20408;-85
2021/11/21 03:38:22;;;;;;;2.63;2.35;;;17.40;78.10;;;;;;5090339;28;20042;-85
2021/11/21 03:40:48;;;;;;;2.63;2.05;;;17.40;78.00;;;;;;5089180;28;20062;-85
2021/11/21 03:43:14;;;;;;;3.42;2.50;;;17.40;77.90;;;;;;5071120;28;20033;-85
2021/11/21 03:45:39;;;;;;;3.25;2.40;;;17.40;77.90;;;;;;5070567;28;20040;-86
2021/11/21 03:48:06;;;;;;;3.22;2.60;;;17.40;77.80;;;;;;5079831;28;20103;-90
2021/11/21 03:50:31;;;;;;;2.92;2.42;;;17.40;77.80;;;;;;5084377;28;20465;-84
2021/11/21 03:52:57;;;;;;;2.78;2.25;;;17.40;77.80;;;;;;5074822;28;20048;-84
2021/11/21 03:55:24;;;;;;;2.97;2.60;;;17.40;77.70;;;;;;5074626;28;20028;-78
2021/11/21 03:57:50;;;;;;;3.15;2.35;;;17.40;77.70;;;;;;5089276;28;20067;-84
2021/11/21 04:00:19;;;;;;;2.95;2.22;;;17.40;77.60;;;;;;5094731;28;20432;-82
2021/11/21 04:02:46;;;;;;;2.92;2.40;;;17.40;77.60;;;;;;5086776;28;20047;-83
2021/11/21 04:05:13;;;;;;;3.58;2.53;;;17.50;77.60;;;;;;5094852;28;20029;-82
2021/11/21 04:07:40;;;;;;;2.83;2.38;;;17.40;77.50;;;;;;5085518;28;20029;-84
2021/11/21 04:10:07;;;;;;;2.75;1.92;;;17.40;77.50;;;;;;5074478;28;20036;-83
2021/11/21 04:12:33;;;;;;;2.88;2.30;;;17.50;77.60;;;;;;5074182;28;20020;-83
2021/11/21 04:14:58;;;;;;;3.05;2.63;;;17.50;77.60;;;;;;5074553;28;20374;-84
2021/11/21 04:17:24;;;;;;;3.58;2.47;;;17.50;78.30;;;;;;5074107;28;20109;-83
2021/11/21 04:19:50;;;;;;;3.95;2.50;;;17.50;77.50;;;;;;5074652;28;20024;-84
2021/11/21 04:22:16;;;;;;;3.35;2.35;;;17.50;77.60;;;;;;5074405;28;20091;-83
2021/11/21 04:24:41;;;;;;;3.40;2.20;;;17.50;77.50;;;;;;5074034;28;20063;-83
2021/11/21 04:27:07;;;;;;;2.95;2.13;;;17.50;78.20;;;;;;5085382;28;20020;-84
2021/11/21 04:29:34;;;;;;;2.58;1.98;;;17.50;77.40;;;;;;5084202;28;20067;-82
2021/11/21 04:32:00;;;;;;;2.95;2.50;;;17.50;77.50;;;;;;5073885;28;20020;-83
2021/11/21 04:34:27;;;;;;;3.10;2.20;;;17.50;77.40;;;;;;5082233;28;20028;-83
2021/11/21 04:36:54;;;;;;;3.63;2.20;;;17.50;77.40;;;;;;5087496;28;20050;-78
2021/11/21 04:39:22;;;;;;;2.45;1.98;;;17.50;77.30;;;;;;5082280;28;20036;-83
2021/11/21 04:41:47;;;;;;;3.22;2.22;;;17.50;77.30;;;;;;5073703;28;20020;-83
2021/11/21 04:44:13;;;;;;;2.38;2.00;;;17.60;77.30;;;;;;5073828;28;20044;-82
2021/11/21 04:46:39;;;;;;;2.67;2.20;;;17.50;77.20;;;;;;5073529;28;20032;-82
2021/11/21 04:49:04;;;;;;;2.90;2.17;;;17.60;77.20;;;;;;5073586;28;20481;-81
2021/11/21 04:51:30;;;;;;;2.70;2.28;;;17.60;77.20;;;;;;5073378;28;20024;-81
2021/11/21 04:53:56;;;;;;;2.78;2.28;;;17.60;77.20;;;;;;5080234;28;20054;-81
2021/11/21 04:56:23;;;;;;;3.13;2.35;;;17.60;77.10;;;;;;5094234;28;20032;-81
2021/11/21 04:58:49;;;;;;;2.90;1.90;;;17.60;77.10;;;;;;5086543;28;20028;-82
2021/11/21 05:01:15;;;;;;;3.05;2.20;;;17.60;77.00;;;;;;5083611;28;20020;-82
2021/11/21 05:03:41;;;;;;;3.08;2.13;;;17.60;77.10;;;;;;5088515;28;20062;-82
2021/11/21 05:06:06;;;;;;;2.75;1.88;;;17.60;77.00;;;;;;5073550;28;20047;-80
2021/11/21 05:08:32;;;;;;;3.03;2.28;;;17.60;77.00;;;;;;5089336;28;20106;-80
2021/11/21 05:10:58;;;;;;;2.67;2.17;;;17.60;77.00;;;;;;5073374;28;20032;-82
2021/11/21 05:13:24;;;;;;;3.55;2.20;;;17.60;77.10;;;;;;5073120;28;20778;-81
2021/11/21 05:15:50;;;;;;;2.45;2.05;;;17.60;77.10;;;;;;5091611;28;20107;-81
2021/11/21 05:18:15;;;;;;;3.00;2.20;;;17.60;77.00;;;;;;5093212;28;20103;-81
2021/11/21 05:20:41;;;;;;;2.67;1.90;;;17.60;77.00;;;;;;5092815;28;20108;-81
2021/11/21 05:23:07;;;;;;;3.05;2.40;;;17.60;77.00;;;;;;5072988;28;20016;-83
2021/11/21 05:25:33;;;;;;;2.83;2.13;;;17.60;76.90;;;;;;5055105;28;20028;-84
2021/11/21 05:27:59;;;;;;;2.88;1.65;;;17.60;76.90;;;;;;5055119;28;20439;-84
2021/11/21 05:30:25;;;;;;;4.75;2.15;;;17.60;76.80;;;;;;5084022;28;20526;-84
2021/11/21 05:32:51;;;;;;;2.40;1.83;;;17.60;76.80;;;;;;5093521;28;20543;-83
2021/11/21 05:35:18;;;;;;;2.42;1.95;;;17.60;76.80;;;;;;5087302;28;20029;-83
2021/11/21 05:37:45;;;;;;;2.65;2.00;;;17.60;76.80;;;;;;5085070;28;20036;-83
2021/11/21 05:40:11;;;;;;;2.67;2.10;;;17.60;76.80;;;;;;5075450;28;20028;-82
2021/11/21 05:42:38;;;;;;;2.80;2.00;;;17.60;76.70;;;;;;5072542;28;20469;-84
2021/11/21 05:45:05;;;;;;;2.75;2.03;;;17.60;76.70;;;;;;5072665;28;20490;-84
2021/11/21 05:47:31;;;;;;;2.92;2.00;;;17.60;76.60;;;;;;5072409;28;20024;-84
2021/11/21 05:49:58;;;;;;;2.35;1.80;;;17.60;76.60;;;;;;5075820;28;20043;-83
2021/11/21 05:52:24;;;;;;;4.00;2.10;;;17.60;76.60;;;;;;5088246;28;20039;-81
2021/11/21 05:54:50;;;;;;;3.47;2.20;;;17.60;76.60;;;;;;5093095;28;20047;-83
2021/11/21 05:57:17;;;;;;;3.45;2.35;;;17.60;76.60;;;;;;5092789;28;20016;-83
2021/11/21 05:59:42;;;;;;;2.30;1.80;;;17.60;76.60;;;;;;5063459;28;20036;-84
2021/11/21 06:02:08;;;;;;;2.58;1.90;;;17.60;76.60;;;;;;5081634;28;20016;-84
2021/11/21 06:04:34;;;;;;;2.60;2.28;;;17.60;76.60;;;;;;5075000;28;20101;-83
2021/11/21 06:07:00;;;;;;;3.00;2.13;;;17.60;76.60;;;;;;5079022;28;20024;-83
2021/11/21 06:09:26;;;;;;;2.67;2.25;;;17.60;76.60;;;;;;5080815;28;20569;-84
2021/11/21 06:11:54;;;;;;;2.70;2.25;;;17.60;76.60;;;;;;5072249;28;20139;-84
2021/11/21 06:14:20;;;;;;;3.08;2.08;;;17.60;76.50;;;;;;5072302;28;20017;-84
2021/11/21 06:16:46;;;;;;;2.65;2.05;;;17.60;76.50;;;;;;5077093;28;20479;-83
2021/11/21 06:19:12;;;;;;;2.30;1.75;;;17.60;76.60;;;;;;5075946;28;20055;-82
2021/11/21 06:21:37;;;;;;;2.63;1.92;;;17.60;76.60;;;;;;5080106;28;20479;-85
2021/11/21 06:24:03;;;;;;;3.22;2.45;;;17.60;76.50;;;;;;5092242;28;20032;-86
2021/11/21 06:26:29;;;;;;;2.72;2.13;;;17.60;76.50;;;;;;5084557;28;20017;-85
2021/11/21 06:28:56;;;;;;;3.00;1.77;;;17.60;76.40;;;;;;5072245;28;20031;-81
2021/11/21 06:31:23;;;;;;;2.70;1.80;;;17.60;76.40;;;;;;5074867;28;20501;-85
2021/11/21 06:33:48;;;;;;;2.63;2.00;;;17.60;76.40;;;;;;5071609;28;20056;-83
2021/11/21 06:36:14;;;;;;;3.78;2.38;;;17.60;76.30;;;;;;5071680;28;20063;-84
2021/11/21 06:38:41;;;;;;;2.90;2.00;;;17.60;76.40;;;;;;5072156;28;20025;-83
2021/11/21 06:41:07;;;;;;;2.97;2.00;;;17.60;76.40;;;;;;5071766;28;20028;-84
2021/11/21 06:43:33;;;;;;;2.53;1.70;;;17.60;76.30;;;;;;5074601;28;20032;-84
2021/11/21 06:45:58;;;;;;;2.88;1.63;;;17.60;76.20;;;;;;5091227;28;20032;-85
2021/11/21 06:48:24;;;;;;;2.70;1.75;;;17.70;76.30;;;;;;5089739;28;20032;-85
2021/11/21 06:50:53;;;;;;;2.80;2.00;;;17.70;76.30;;;;;;5090583;28;20036;-86
2021/11/21 06:53:21;;;;;;;2.47;1.85;;;17.70;76.20;;;;;;5071588;28;20044;-82
2021/11/21 06:55:47;;;;;;;2.13;1.88;;;17.70;76.20;;;;;;5076293;28;20472;-85
2021/11/21 06:58:13;;;;;;;3.08;1.70;;;17.70;76.30;;;;;;5090555;28;20103;-88
2021/11/21 07:00:39;;;;;;;3.00;2.13;;;17.70;76.20;;;;;;5073207;28;20096;-87
2021/11/21 07:03:05;;;;;;;2.47;1.73;;;17.70;76.20;;;;;;5073202;28;20408;-87
2021/11/21 07:05:30;;;;;;;1.73;1.38;;;17.70;76.10;;;;;;5070949;28;20108;-84
2021/11/21 07:07:57;;;;;;;2.28;1.58;;;17.80;76.10;;;;;;5071320;28;20025;-85
2021/11/21 07:10:23;;;;;;;2.67;1.58;;;17.80;76.10;;;;;;5088534;28;20025;-78
2021/11/21 07:12:49;;;;;;;3.45;1.88;;;17.80;76.10;;;;;;5076154;28;20488;-89
2021/11/21 07:15:16;;;;;;;2.45;1.70;;;17.80;76.10;;;;;;5071108;28;20023;-87
2021/11/21 07:17:44;;;;;;;2.22;1.60;;;17.90;76.10;;;;;;5070735;28;20032;-89
2021/11/21 07:20:15;;;;;;;2.20;1.50;;;17.90;76.00;;;;;;5087374;28;20063;-90
2021/11/21 07:22:48;;;;;;;2.28;1.73;;;17.90;76.00;;;;;;5064432;28;20031;-85
2021/11/21 07:25:16;;;;;;;2.70;1.50;;;18.00;76.80;;;;;;5072465;28;20040;-84
2021/11/21 07:27:42;;;;;;;3.72;1.52;;;18.00;76.20;;;;;;5070857;28;20028;-89
2021/11/21 07:30:09;;;;;;;2.80;1.90;;;18.00;76.10;;;;;;5086496;28;20399;-89
2021/11/21 07:32:34;;;;;;;2.35;1.50;;;18.10;76.30;;;;;;5091065;28;20024;-89
2021/11/21 07:35:00;;;;;;;2.22;1.50;;;18.10;76.30;;;;;;5091238;28;20020;-88
2021/11/21 07:37:26;;;;;;;1.92;1.10;;;18.00;76.20;;;;;;5090116;28;20056;-89
2021/11/21 07:39:51;;;;;;;2.00;1.27;;;18.10;76.20;;;;;;5091089;28;20031;-88
2021/11/21 07:42:17;;;;;;;1.73;1.30;;;18.10;76.20;;;;;;5091210;28;20020;-82
2021/11/21 07:44:43;;;;;;;3.72;1.30;;;18.20;76.30;;;;;;5090171;28;20487;-87
2021/11/21 07:47:09;;;;;;;2.60;1.15;;;18.20;76.20;;;;;;5072086;28;20085;-84
2021/11/21 07:49:34;;;;;;;7.00;1.40;;;18.20;76.20;;;;;;5090732;28;20030;-88
2021/11/21 07:52:00;;;;;;;1.90;1.40;;;18.20;76.40;;;;;;5093498;28;20024;-85
2021/11/21 07:54:26;;;;;;;2.83;1.15;;;18.30;76.50;;;;;;5074767;28;20039;-87
2021/11/21 07:56:51;;;;;;;1.92;1.42;;;18.40;76.60;;;;;;5070961;28;20412;-83
2021/11/21 07:59:17;;;;;;;2.83;1.77;;;18.30;76.60;;;;;;5076859;28;20055;-83
2021/11/21 08:01:45;;;;;;;3.05;1.42;;;18.40;76.70;;;;;;5090534;28;20024;-83
2021/11/21 08:04:11;;;;;;;3.17;1.75;;;18.50;76.90;;;;;;5080971;28;20020;-84
2021/11/21 08:06:37;;;;;;;5.65;2.05;;;18.50;76.80;;;;;;5065005;28;20115;-87
2021/11/21 08:09:03;;;;;;;6.18;1.58;;;18.50;77.00;;;;;;5070892;28;20037;-86
2021/11/21 08:11:28;;;;;;;5.22;1.60;;;18.50;76.90;;;;;;5070301;28;20039;-83
2021/11/21 08:13:54;;;;;;;3.63;2.85;;;18.50;77.10;;;;;;5070446;28;20031;-84
2021/11/21 08:16:20;;;;;;;5.28;3.15;;;18.50;76.90;;;;;;5091008;28;20514;-84
2021/11/21 08:18:45;;;;;;;6.82;3.03;;;18.60;76.80;;;;;;5083812;28;20048;-89
2021/11/21 08:21:11;;;;;;;9.50;4.60;;;18.50;76.70;;;;;;5070507;28;20025;-82
2021/11/21 08:23:37;;;;;;;12.68;5.10;;;18.50;76.60;;;;;;5070389;28;20035;-79
2021/11/21 08:26:03;;;;;;;7.32;3.92;;;18.50;76.80;;;;;;5052524;28;20051;-82
2021/11/21 08:28:29;;;;;;;8.35;3.95;;;18.50;76.70;;;;;;5052341;28;20103;-83
2021/11/21 08:30:54;;;;;;;6.10;3.10;;;18.60;76.70;;;;;;5071792;28;20174;-83
2021/11/21 08:33:20;;;;;;;6.05;3.67;;;18.60;76.60;;;;;;5069992;28;20016;-83
2021/11/21 08:35:46;;;;;;;6.20;3.47;;;18.60;76.70;;;;;;5053213;28;20056;-85
2021/11/21 08:38:11;;;;;;;7.10;3.20;;;18.60;76.70;;;;;;5073694;28;20021;-86
2021/11/21 08:40:37;;;;;;;6.65;3.17;;;18.70;76.70;;;;;;5072486;28;20454;-85
2021/11/21 08:43:03;;;;;;;5.57;2.80;;;18.70;76.60;;;;;;5072700;28;20017;-83
2021/11/21 08:45:32;;;;;;;10.20;2.58;;;18.70;76.60;;;;;;5072033;28;20424;-81
2021/11/21 08:47:59;;;;;;;3.72;2.63;;;18.70;76.50;;;;;;5072468;28;20036;-82
2021/11/21 08:50:26;;;;;;;6.05;2.70;;;18.70;76.40;;;;;;5071869;28;20076;-81
2021/11/21 08:52:51;;;;;;;4.53;2.55;;;18.70;76.40;;;;;;5073132;28;20024;-79
2021/11/21 08:55:17;;;;;;;4.40;2.25;;;18.80;76.60;;;;;;5071699;28;20025;-82
2021/11/21 08:57:45;;;;;;;4.85;2.30;;;18.80;76.70;;;;;;5075334;28;20024;-80
2021/11/21 09:00:12;;;;;;;4.00;2.33;;;18.80;76.70;;;;;;5072034;28;20048;-81
2021/11/21 09:02:38;;;;;;;7.55;2.15;;;18.80;76.60;;;;;;5080715;28;20024;-80
2021/11/21 09:05:07;;;;;;;3.00;1.90;;;18.80;76.70;;;;;;5088952;28;20017;-84
2021/11/21 09:07:41;;;;;;;5.70;1.70;;;18.80;77.00;;;;;;5082546;28;20385;-80
2021/11/21 09:10:17;;;;;;;3.45;2.10;;;18.90;77.20;;;;;;5072102;28;20040;-81
2021/11/21 09:12:43;;;;;;;4.72;2.10;;;18.90;77.00;;;;;;5075572;28;20024;-84
2021/11/21 09:15:11;;;;;;;2.40;1.80;;;18.90;76.90;;;;;;5057929;28;20584;-84
2021/11/21 09:17:37;;;;;;;3.80;1.98;;;18.90;76.80;;;;;;5071986;28;20024;-85
2021/11/21 09:20:04;;;;;;;3.58;1.60;;;18.90;76.50;;;;;;5074920;28;20077;-84
2021/11/21 09:22:30;;;;;;;4.00;1.67;;;18.90;77.10;;;;;;5069675;28;20027;-83
2021/11/21 09:24:55;;;;;;;3.83;1.80;;;18.90;76.40;;;;;;5073926;28;20033;-83
2021/11/21 09:27:21;;;;;;;4.32;2.20;;;18.90;76.20;;;;;;5082695;28;20553;-86
2021/11/21 09:29:47;;;;;;;5.07;2.47;;;18.90;76.00;;;;;;5074891;28;20025;-84
2021/11/21 09:32:13;;;;;;;4.30;1.42;;;18.90;76.00;;;;;;5086722;28;20096;-85
2021/11/21 09:34:39;;;;;;;5.32;1.80;;;18.90;75.50;;;;;;5083469;28;20097;-86
2021/11/21 09:37:06;;;;;;;3.83;1.70;;;18.90;75.60;;;;;;5079578;28;20509;-85
2021/11/21 09:39:32;;;;;;;2.13;1.50;;;18.90;75.50;;;;;;5077487;28;20379;-85
2021/11/21 09:41:57;;;;;;;2.45;1.13;;;18.90;75.10;;;;;;5077969;28;20392;-86
2021/11/21 09:44:24;;;;;;;4.95;1.63;;;18.90;75.00;;;;;;5085540;28;20031;-80
2021/11/21 09:46:52;;;;;;;3.65;1.80;;;18.90;75.10;;;;;;5072844;28;20037;-88
2021/11/21 09:49:18;;;;;;;9.38;2.25;;;18.90;75.20;;;;;;5075569;28;20025;-88
2021/11/21 09:51:45;;;;;;;5.00;1.80;;;18.90;75.10;;;;;;5088242;28;20047;-83
2021/11/21 09:54:11;;;;;;;4.25;1.45;;;18.90;74.90;;;;;;5072187;28;20376;-86
2021/11/21 09:56:37;;;;;;;7.03;1.83;;;18.90;74.80;;;;;;5070835;28;20028;-87
2021/11/21 09:59:03;;;;;;;5.20;1.75;;;19.00;75.00;;;;;;5063709;28;20021;-87
2021/11/21 10:01:33;;;;;;;5.45;1.40;;;19.00;75.10;;;;;;5088379;28;20034;-85
2021/11/21 10:04:00;;;;;;;3.38;1.33;;;19.00;75.00;;;;;;5075027;28;20024;-87
2021/11/21 10:06:35;;;;;;;4.20;1.40;;;19.00;75.00;;;;;;5062724;28;20540;-88
2021/11/21 10:09:05;;;;;;;6.50;1.30;;;19.00;75.10;;;;;;5081920;28;20074;-84
2021/11/21 10:11:31;;;;;;;3.10;1.63;;;19.00;75.10;;;;;;5082413;28;20033;-79
2021/11/21 10:14:04;;;;;;;2.88;1.13;;;19.10;75.40;;;;;;5076502;28;20047;-88
2021/11/21 10:16:32;;;;;;;3.72;1.40;;;19.10;75.10;;;;;;5082756;28;20496;-87
2021/11/21 10:18:57;;;;;;;6.05;1.77;;;19.20;74.80;;;;;;5083912;28;20020;-88
2021/11/21 10:21:28;;;;;;;3.75;1.00;;;19.20;74.90;;;;;;5090283;28;20035;-79
2021/11/21 10:24:24;;;;;;;3.20;1.27;;;19.30;74.80;;;;;;5063152;28;20443;-80
2021/11/21 10:27:15;;;;;;;4.18;1.42;;;19.30;74.60;;;;;;5084322;28;20028;-87
2021/11/21 10:29:46;;;;;;;2.38;0.85;;;19.30;74.60;;;;;;5074577;28;20082;-83
2021/11/21 10:32:24;;;;;;;7.53;1.33;;;19.30;74.70;;;;;;5085226;28;20369;-88
2021/11/21 10:34:58;;;;;;;4.07;0.90;;;19.30;74.60;;;;;;5070831;28;20035;-86
2021/11/21 10:37:39;;;;;;;2.60;1.20;;;19.40;74.50;;;;;;5068053;28;20032;-77
2021/11/21 10:40:13;;;;;;;3.08;0.80;;;19.40;74.40;;;;;;5070212;28;20017;-87
2021/11/21 10:42:41;;;;;;;2.33;0.70;;;19.40;74.30;;;;;;5067746;28;20030;-90
2021/11/21 10:45:09;;;;;;;3.40;0.70;;;19.50;74.20;;;;;;5070272;28;20024;-85
2021/11/21 10:47:50;;;;;;;2.88;1.20;;;19.50;73.90;;;;;;5070157;28;20074;-84
2021/11/21 10:50:29;;;;;;;3.50;1.05;;;19.50;74.30;;;;;;5069965;28;20029;-85
2021/11/21 10:52:56;;;;;;;6.70;1.08;;;19.60;73.20;;;;;;5082885;28;20024;-85
2021/11/21 10:55:22;;;;;;;3.95;0.93;;;19.60;73.60;;;;;;5075136;28;20082;-83
2021/11/21 10:57:48;;;;;;;3.40;1.00;;;19.60;73.10;;;;;;5072910;28;20107;-85
2021/11/21 11:00:22;;;;;;;2.53;0.63;;;19.60;73.40;;;;;;5071787;28;20107;-84
2021/11/21 11:02:49;;;;;;;4.30;1.38;;;19.70;73.10;;;;;;5085833;28;20020;-83
2021/11/21 11:05:18;;;;;;;5.82;0.90;;;19.70;73.10;;;;;;5073134;28;20020;-81
2021/11/21 11:07:46;;;;;;;4.50;1.00;;;19.70;73.00;;;;;;5072224;28;20025;-78
2021/11/21 11:10:18;;;;;;;5.85;0.80;;;19.80;73.10;;;;;;5084511;28;20082;-79
2021/11/21 11:13:02;;;;;;;1.52;0.75;;;19.80;72.70;;;;;;5080773;28;20028;-84
2021/11/21 11:15:30;;;;;;;4.10;1.27;;;19.80;72.60;;;;;;5074008;28;20029;-83
2021/11/21 11:17:57;;;;;;;3.83;1.13;;;19.90;72.70;;;;;;5078454;28;20020;-86
2021/11/21 11:20:23;;;;;;;2.45;0.68;;;19.90;72.40;;;;;;5083201;28;20108;-76
2021/11/21 11:22:49;;;;;;;4.82;1.30;;;19.90;72.30;;;;;;5081898;28;20017;-76
2021/11/21 11:25:30;;;;;;;3.47;0.88;;;20.00;71.70;;;;;;5075394;28;20048;-76
2021/11/21 11:28:19;;;;;;;3.15;0.80;;;20.00;71.70;;;;;;5072088;28;20074;-85
2021/11/21 11:30:47;;;;;;;1.90;0.70;;;20.00;71.70;;;;;;5076720;28;20064;-80
2021/11/21 11:33:19;;;;;;;2.15;0.68;;;20.00;71.60;;;;;;5083740;28;20456;-79
2021/11/21 11:35:49;;;;;;;2.85;0.90;;;20.00;71.20;;;;;;5087873;28;20031;-82
2021/11/21 11:38:19;;;;;;;4.28;1.00;;;20.10;71.40;;;;;;5070805;28;20029;-84
2021/11/21 11:40:53;;;;;;;2.08;0.65;;;20.10;71.20;;;;;;5056092;28;20035;-83
2021/11/21 11:43:19;;;;;;;3.45;0.90;;;20.10;70.70;;;;;;5073033;28;20032;-84
2021/11/21 11:45:58;;;;;;;3.10;0.52;;;20.10;70.50;;;;;;5074193;28;20031;-85
2021/11/21 11:48:35;;;;;;;2.67;0.70;;;20.10;70.40;;;;;;5071648;28;20029;-84
2021/11/21 11:51:27;;;;;;;3.00;1.38;;;20.10;70.50;;;;;;5077576;28;20086;-83
2021/11/21 11:53:54;;;;;;;4.45;0.98;;;20.10;71.20;;;;;;5077116;28;20024;-77
2021/11/21 11:56:24;;;;;;;4.78;0.93;;;20.00;70.70;;;;;;5072505;28;20024;-82
2021/11/21 11:59:07;;;;;;;1.75;0.73;;;20.00;70.40;;;;;;5072135;28;20013;-81
2021/11/21 12:01:54;;;;;;;2.40;0.85;;;20.00;70.80;;;;;;5069994;28;20028;-81
2021/11/21 12:04:23;;;;;;;2.58;1.30;;;20.00;70.90;;;;;;5076703;28;20024;-82
2021/11/21 12:06:57;;;;;;;2.00;0.73;;;19.90;71.10;;;;;;5074286;28;20365;-82
2021/11/21 12:09:29;;;;;;;2.00;0.57;;;19.90;71.20;;;;;;5070963;28;20404;-78
2021/11/21 12:11:57;;;;;;;3.28;1.00;;;19.90;71.30;;;;;;5071131;28;20327;-81
2021/11/21 12:14:34;;;;;;;2.65;0.60;;;19.90;71.40;;;;;;5083239;28;20028;-74
2021/11/21 12:17:17;;;;;;;3.67;0.82;;;19.90;71.20;;;;;;5076606;28;20380;-83
2021/11/21 12:19:42;;;;;;;2.42;0.73;;;19.80;70.80;;;;;;5075420;28;20104;-81
2021/11/21 12:22:26;;;;;;;2.90;0.88;;;19.80;71.30;;;;;;5074009;28;20127;-82
2021/11/21 12:25:17;;;;;;;3.05;0.80;;;19.70;70.90;;;;;;5072540;28;20075;-82
2021/11/21 12:27:55;;;;;;;3.65;0.80;;;19.70;71.40;;;;;;5074968;28;20029;-81
2021/11/21 12:30:25;;;;;;;3.15;0.77;;;19.70;71.50;;;;;;5074083;28;20052;-82
2021/11/21 12:32:55;;;;;;;2.13;0.93;;;19.70;71.50;;;;;;5073978;28;20810;-80
2021/11/21 12:35:41;;;;;;;3.35;1.10;;;19.70;71.60;;;;;;5074689;28;20033;-81
2021/11/21 12:38:33;;;;;;;3.95;0.90;;;19.60;71.60;;;;;;5064041;28;20491;-80
2021/11/21 12:41:01;;;;;;;2.13;0.82;;;19.60;71.50;;;;;;5086159;28;20028;-85
2021/11/21 12:43:28;;;;;;;3.35;0.98;;;19.60;71.40;;;;;;5076681;28;20039;-82
2021/11/21 12:45:59;;;;;;;2.15;0.73;;;19.60;71.40;;;;;;5071635;28;20434;-82
2021/11/21 12:48:27;;;;;;;3.60;0.90;;;19.70;71.70;;;;;;5085371;28;20473;-84
2021/11/21 12:51:10;;;;;;;3.83;1.08;;;19.70;71.40;;;;;;5072451;28;20045;-76